sensor_id;sensor_type;location;lat;lon;timestamp;temperature;humidity
23721;DHT22;42950;52.134;5.578;2023-08-21T00:00:20;19.50;99.90
23721;DHT22;42950;52.134;5.578;2023-08-21T00:02:46;19.50;99.90
23721;DHT22;42950;52.134;5.578;2023-08-21T00:05:11;19.50;99.90
23721;DHT22;42950;52.134;5.578;2023-08-21T00:07:37;19.50;99.90
23721;DHT22;42950;52.134;5.578;2023-08-21T00:10:03;19.50;99.90
23721;DHT22;42950;52.134;5.578;2023-08-21T00:12:29;19.50;99.90
23721;DHT22;42950;52.134;5.578;2023-08-21T00:14:54;19.30;99.90
23721;DHT22;42950;52.134;5.578;2023-08-21T00:17:20;19.30;99.90
23721;DHT22;42950;52.134;5.578;2023-08-21T00:19:45;19.30;99.90
23721;DHT22;42950;52.134;5.578;2023-08-21T00:22:11;19.30;99.90
23721;DHT22;42950;52.134;5.578;2023-08-21T00:24:36;19.30;99.90
23721;DHT22;42950;52.134;5.578;2023-08-21T00:27:02;19.40;99.90
23721;DHT22;42950;52.134;5.578;2023-08-21T00:29:29;19.30;99.90
23721;DHT22;42950;52.134;5.578;2023-08-21T00:31:55;19.20;99.90
23721;DHT22;42950;52.134;5.578;2023-08-21T00:34:20;19.20;99.90
23721;DHT22;42950;52.134;5.578;2023-08-21T00:36:46;19.30;99.90
23721;DHT22;42950;52.134;5.578;2023-08-21T00:39:11;19.30;99.90
23721;DHT22;42950;52.134;5.578;2023-08-21T00:41:37;19.30;99.90
23721;DHT22;42950;52.134;5.578;2023-08-21T00:44:03;19.30;99.90
23721;DHT22;42950;52.134;5.578;2023-08-21T00:46:29;19.30;99.90
23721;DHT22;42950;52.134;5.578;2023-08-21T00:48:55;19.40;99.90
23721;DHT22;42950;52.134;5.578;2023-08-21T00:51:21;19.40;99.90
23721;DHT22;42950;52.134;5.578;2023-08-21T00:53:47;19.40;99.90
23721;DHT22;42950;52.134;5.578;2023-08-21T00:56:13;19.50;99.90
23721;DHT22;42950;52.134;5.578;2023-08-21T00:58:39;19.50;99.90
23721;DHT22;42950;52.134;5.578;2023-08-21T01:01:04;19.50;99.90
23721;DHT22;42950;52.134;5.578;2023-08-21T01:03:30;19.40;99.90
23721;DHT22;42950;52.134;5.578;2023-08-21T01:05:56;19.30;99.90
23721;DHT22;42950;52.134;5.578;2023-08-21T01:08:34;19.20;99.90
23721;DHT22;42950;52.134;5.578;2023-08-21T01:11:23;19.20;99.90
23721;DHT22;42950;52.134;5.578;2023-08-21T01:13:55;19.20;99.90
23721;DHT22;42950;52.134;5.578;2023-08-21T01:16:24;19.20;99.90
23721;DHT22;42950;52.134;5.578;2023-08-21T01:18:51;19.20;99.90
23721;DHT22;42950;52.134;5.578;2023-08-21T01:21:19;19.30;99.90
23721;DHT22;42950;52.134;5.578;2023-08-21T01:23:45;19.20;99.90
23721;DHT22;42950;52.134;5.578;2023-08-21T01:26:10;19.20;99.90
23721;DHT22;42950;52.134;5.578;2023-08-21T01:28:36;19.20;99.90
23721;DHT22;42950;52.134;5.578;2023-08-21T01:31:21;19.20;99.90
23721;DHT22;42950;52.134;5.578;2023-08-21T01:33:51;19.20;99.90
23721;DHT22;42950;52.134;5.578;2023-08-21T01:36:17;19.20;99.90
23721;DHT22;42950;52.134;5.578;2023-08-21T01:38:43;19.20;99.90
23721;DHT22;42950;52.134;5.578;2023-08-21T01:41:09;19.20;99.90
23721;DHT22;42950;52.134;5.578;2023-08-21T01:43:34;19.20;99.90
23721;DHT22;42950;52.134;5.578;2023-08-21T01:46:01;19.20;99.90
23721;DHT22;42950;52.134;5.578;2023-08-21T01:48:28;19.20;99.90
23721;DHT22;42950;52.134;5.578;2023-08-21T01:50:54;19.20;99.90
23721;DHT22;42950;52.134;5.578;2023-08-21T01:53:19;19.30;99.90
23721;DHT22;42950;52.134;5.578;2023-08-21T01:55:45;19.30;99.90
23721;DHT22;42950;52.134;5.578;2023-08-21T01:58:10;19.30;99.90
23721;DHT22;42950;52.134;5.578;2023-08-21T02:00:36;19.30;99.90
23721;DHT22;42950;52.134;5.578;2023-08-21T02:03:01;19.30;99.90
23721;DHT22;42950;52.134;5.578;2023-08-21T02:05:27;19.30;99.90
23721;DHT22;42950;52.134;5.578;2023-08-21T02:07:53;19.20;99.90
23721;DHT22;42950;52.134;5.578;2023-08-21T02:10:18;19.20;99.90
23721;DHT22;42950;52.134;5.578;2023-08-21T02:12:44;19.30;99.90
23721;DHT22;42950;52.134;5.578;2023-08-21T02:15:09;19.30;99.90
23721;DHT22;42950;52.134;5.578;2023-08-21T02:17:35;19.30;99.90
23721;DHT22;42950;52.134;5.578;2023-08-21T02:20:01;19.30;99.90
23721;DHT22;42950;52.134;5.578;2023-08-21T02:22:27;19.20;99.90
23721;DHT22;42950;52.134;5.578;2023-08-21T02:24:53;19.20;99.90
23721;DHT22;42950;52.134;5.578;2023-08-21T02:27:19;19.20;99.90
23721;DHT22;42950;52.134;5.578;2023-08-21T02:29:44;19.20;99.90
23721;DHT22;42950;52.134;5.578;2023-08-21T02:32:10;19.10;99.90
23721;DHT22;42950;52.134;5.578;2023-08-21T02:34:35;19.20;99.90
23721;DHT22;42950;52.134;5.578;2023-08-21T02:37:01;19.10;99.90
23721;DHT22;42950;52.134;5.578;2023-08-21T02:39:28;19.20;99.90
23721;DHT22;42950;52.134;5.578;2023-08-21T02:41:53;19.20;99.90
23721;DHT22;42950;52.134;5.578;2023-08-21T02:44:19;19.20;99.90
23721;DHT22;42950;52.134;5.578;2023-08-21T02:46:44;19.20;99.90
23721;DHT22;42950;52.134;5.578;2023-08-21T02:49:10;19.10;99.90
23721;DHT22;42950;52.134;5.578;2023-08-21T02:51:36;19.10;99.90
23721;DHT22;42950;52.134;5.578;2023-08-21T02:54:01;19.20;99.90
23721;DHT22;42950;52.134;5.578;2023-08-21T02:56:27;19.10;99.90
23721;DHT22;42950;52.134;5.578;2023-08-21T02:58:52;19.10;99.90
23721;DHT22;42950;52.134;5.578;2023-08-21T03:01:18;19.00;99.90
23721;DHT22;42950;52.134;5.578;2023-08-21T03:03:43;19.00;99.90
23721;DHT22;42950;52.134;5.578;2023-08-21T03:06:09;19.00;99.90
23721;DHT22;42950;52.134;5.578;2023-08-21T03:08:35;19.10;99.90
23721;DHT22;42950;52.134;5.578;2023-08-21T03:11:00;19.10;99.90
23721;DHT22;42950;52.134;5.578;2023-08-21T03:13:26;19.20;99.90
23721;DHT22;42950;52.134;5.578;2023-08-21T03:15:51;19.20;99.90
23721;DHT22;42950;52.134;5.578;2023-08-21T03:18:17;19.20;99.90
23721;DHT22;42950;52.134;5.578;2023-08-21T03:20:46;19.20;99.90
23721;DHT22;42950;52.134;5.578;2023-08-21T03:23:14;19.20;99.90
23721;DHT22;42950;52.134;5.578;2023-08-21T03:25:40;19.20;99.90
23721;DHT22;42950;52.134;5.578;2023-08-21T03:28:05;19.20;99.90
23721;DHT22;42950;52.134;5.578;2023-08-21T03:30:31;19.20;99.90
23721;DHT22;42950;52.134;5.578;2023-08-21T03:32:57;19.20;99.90
23721;DHT22;42950;52.134;5.578;2023-08-21T03:35:22;19.10;99.90
23721;DHT22;42950;52.134;5.578;2023-08-21T03:37:48;19.10;99.90
23721;DHT22;42950;52.134;5.578;2023-08-21T03:40:13;19.00;99.90
23721;DHT22;42950;52.134;5.578;2023-08-21T03:42:39;18.90;99.90
23721;DHT22;42950;52.134;5.578;2023-08-21T03:45:05;18.80;99.90
23721;DHT22;42950;52.134;5.578;2023-08-21T03:47:31;18.90;99.90
23721;DHT22;42950;52.134;5.578;2023-08-21T03:49:56;18.80;99.90
23721;DHT22;42950;52.134;5.578;2023-08-21T03:52:22;18.80;99.90
23721;DHT22;42950;52.134;5.578;2023-08-21T03:54:47;18.80;99.90
23721;DHT22;42950;52.134;5.578;2023-08-21T03:57:13;18.70;99.90
23721;DHT22;42950;52.134;5.578;2023-08-21T03:59:38;18.80;99.90
23721;DHT22;42950;52.134;5.578;2023-08-21T04:02:04;18.70;99.90
23721;DHT22;42950;52.134;5.578;2023-08-21T04:04:30;18.70;99.90
23721;DHT22;42950;52.134;5.578;2023-08-21T04:06:55;18.60;99.90
23721;DHT22;42950;52.134;5.578;2023-08-21T04:09:21;18.60;99.90
23721;DHT22;42950;52.134;5.578;2023-08-21T04:11:46;18.60;99.90
23721;DHT22;42950;52.134;5.578;2023-08-21T04:14:12;18.60;99.90
23721;DHT22;42950;52.134;5.578;2023-08-21T04:16:37;18.60;99.90
23721;DHT22;42950;52.134;5.578;2023-08-21T04:19:03;18.50;99.90
23721;DHT22;42950;52.134;5.578;2023-08-21T04:21:29;18.50;99.90
23721;DHT22;42950;52.134;5.578;2023-08-21T04:23:54;18.40;99.90
23721;DHT22;42950;52.134;5.578;2023-08-21T04:26:20;18.40;99.90
23721;DHT22;42950;52.134;5.578;2023-08-21T04:28:46;18.50;99.90
23721;DHT22;42950;52.134;5.578;2023-08-21T04:31:11;18.50;99.90
23721;DHT22;42950;52.134;5.578;2023-08-21T04:33:37;18.50;99.90
23721;DHT22;42950;52.134;5.578;2023-08-21T04:36:03;18.50;99.90
23721;DHT22;42950;52.134;5.578;2023-08-21T04:38:28;18.50;99.90
23721;DHT22;42950;52.134;5.578;2023-08-21T04:40:54;18.50;99.90
23721;DHT22;42950;52.134;5.578;2023-08-21T04:43:20;18.50;99.90
23721;DHT22;42950;52.134;5.578;2023-08-21T04:45:49;18.50;99.90
23721;DHT22;42950;52.134;5.578;2023-08-21T04:48:20;18.60;99.90
23721;DHT22;42950;52.134;5.578;2023-08-21T04:50:46;18.50;99.90
23721;DHT22;42950;52.134;5.578;2023-08-21T04:53:12;18.50;99.90
23721;DHT22;42950;52.134;5.578;2023-08-21T04:55:39;18.50;99.90
23721;DHT22;42950;52.134;5.578;2023-08-21T04:58:09;18.50;99.90
23721;DHT22;42950;52.134;5.578;2023-08-21T05:00:35;18.40;99.90
23721;DHT22;42950;52.134;5.578;2023-08-21T05:03:00;18.30;99.90
23721;DHT22;42950;52.134;5.578;2023-08-21T05:05:26;18.30;99.90
23721;DHT22;42950;52.134;5.578;2023-08-21T05:07:54;18.40;99.90
23721;DHT22;42950;52.134;5.578;2023-08-21T05:10:20;18.40;99.90
23721;DHT22;42950;52.134;5.578;2023-08-21T05:12:46;18.50;99.90
23721;DHT22;42950;52.134;5.578;2023-08-21T05:15:11;18.50;99.90
23721;DHT22;42950;52.134;5.578;2023-08-21T05:17:37;18.60;99.90
23721;DHT22;42950;52.134;5.578;2023-08-21T05:20:03;18.60;99.90
23721;DHT22;42950;52.134;5.578;2023-08-21T05:22:29;18.60;99.90
23721;DHT22;42950;52.134;5.578;2023-08-21T05:24:55;18.70;99.90
23721;DHT22;42950;52.134;5.578;2023-08-21T05:27:20;18.60;99.90
23721;DHT22;42950;52.134;5.578;2023-08-21T05:29:46;18.70;99.90
23721;DHT22;42950;52.134;5.578;2023-08-21T05:32:11;18.70;99.90
23721;DHT22;42950;52.134;5.578;2023-08-21T05:34:37;18.80;99.90
23721;DHT22;42950;52.134;5.578;2023-08-21T05:37:03;18.80;99.90
23721;DHT22;42950;52.134;5.578;2023-08-21T05:39:28;18.80;99.90
23721;DHT22;42950;52.134;5.578;2023-08-21T05:41:54;18.80;99.90
23721;DHT22;42950;52.134;5.578;2023-08-21T05:44:19;18.80;99.90
23721;DHT22;42950;52.134;5.578;2023-08-21T05:46:45;18.80;99.90
23721;DHT22;42950;52.134;5.578;2023-08-21T05:49:10;18.90;99.90
23721;DHT22;42950;52.134;5.578;2023-08-21T05:51:36;18.80;99.90
23721;DHT22;42950;52.134;5.578;2023-08-21T05:54:01;18.80;99.90
23721;DHT22;42950;52.134;5.578;2023-08-21T05:56:27;18.80;99.90
23721;DHT22;42950;52.134;5.578;2023-08-21T05:58:52;18.80;99.90
23721;DHT22;42950;52.134;5.578;2023-08-21T06:01:18;18.80;99.90
23721;DHT22;42950;52.134;5.578;2023-08-21T06:03:44;18.90;99.90
23721;DHT22;42950;52.134;5.578;2023-08-21T06:06:09;18.90;99.90
23721;DHT22;42950;52.134;5.578;2023-08-21T06:08:35;19.00;99.90
23721;DHT22;42950;52.134;5.578;2023-08-21T06:11:00;19.00;99.90
23721;DHT22;42950;52.134;5.578;2023-08-21T06:13:26;19.10;99.90
23721;DHT22;42950;52.134;5.578;2023-08-21T06:15:53;19.10;99.90
23721;DHT22;42950;52.134;5.578;2023-08-21T06:18:18;19.10;99.90
23721;DHT22;42950;52.134;5.578;2023-08-21T06:20:44;19.10;99.90
23721;DHT22;42950;52.134;5.578;2023-08-21T06:23:10;19.10;99.90
23721;DHT22;42950;52.134;5.578;2023-08-21T06:25:36;19.20;99.90
23721;DHT22;42950;52.134;5.578;2023-08-21T06:28:02;19.20;99.90
23721;DHT22;42950;52.134;5.578;2023-08-21T06:30:27;19.20;99.90
23721;DHT22;42950;52.134;5.578;2023-08-21T06:32:54;19.30;99.90
23721;DHT22;42950;52.134;5.578;2023-08-21T06:35:19;19.30;99.90
23721;DHT22;42950;52.134;5.578;2023-08-21T06:37:45;19.40;99.90
23721;DHT22;42950;52.134;5.578;2023-08-21T06:40:11;19.40;99.90
23721;DHT22;42950;52.134;5.578;2023-08-21T06:42:36;19.50;99.90
23721;DHT22;42950;52.134;5.578;2023-08-21T06:45:04;19.60;99.90
23721;DHT22;42950;52.134;5.578;2023-08-21T06:47:29;19.70;99.90
23721;DHT22;42950;52.134;5.578;2023-08-21T06:49:55;19.90;99.90
23721;DHT22;42950;52.134;5.578;2023-08-21T06:52:20;20.00;99.90
23721;DHT22;42950;52.134;5.578;2023-08-21T06:54:46;20.20;99.90
23721;DHT22;42950;52.134;5.578;2023-08-21T06:57:12;20.20;99.90
23721;DHT22;42950;52.134;5.578;2023-08-21T06:59:37;20.20;99.90
23721;DHT22;42950;52.134;5.578;2023-08-21T07:02:03;20.30;99.90
23721;DHT22;42950;52.134;5.578;2023-08-21T07:04:29;20.40;99.90
23721;DHT22;42950;52.134;5.578;2023-08-21T07:06:54;20.40;99.90
23721;DHT22;42950;52.134;5.578;2023-08-21T07:09:20;20.50;99.90
23721;DHT22;42950;52.134;5.578;2023-08-21T07:11:46;20.50;99.90
23721;DHT22;42950;52.134;5.578;2023-08-21T07:14:11;20.60;99.90
23721;DHT22;42950;52.134;5.578;2023-08-21T07:16:39;20.70;99.90
23721;DHT22;42950;52.134;5.578;2023-08-21T07:19:05;20.70;99.90
23721;DHT22;42950;52.134;5.578;2023-08-21T07:21:31;20.70;99.90
23721;DHT22;42950;52.134;5.578;2023-08-21T07:23:56;20.80;99.90
23721;DHT22;42950;52.134;5.578;2023-08-21T07:26:22;20.80;99.90
23721;DHT22;42950;52.134;5.578;2023-08-21T07:28:47;20.90;99.90
23721;DHT22;42950;52.134;5.578;2023-08-21T07:31:13;20.90;99.90
23721;DHT22;42950;52.134;5.578;2023-08-21T07:33:38;21.00;99.90
23721;DHT22;42950;52.134;5.578;2023-08-21T07:36:05;21.10;99.90
23721;DHT22;42950;52.134;5.578;2023-08-21T07:38:31;21.20;99.90
23721;DHT22;42950;52.134;5.578;2023-08-21T07:41:08;21.40;99.90
23721;DHT22;42950;52.134;5.578;2023-08-21T07:43:36;21.50;99.90
23721;DHT22;42950;52.134;5.578;2023-08-21T07:46:05;21.60;99.90
23721;DHT22;42950;52.134;5.578;2023-08-21T07:48:31;21.70;99.90
23721;DHT22;42950;52.134;5.578;2023-08-21T07:50:57;21.70;99.90
23721;DHT22;42950;52.134;5.578;2023-08-21T07:53:23;21.80;99.90
23721;DHT22;42950;52.134;5.578;2023-08-21T07:55:49;21.80;99.90
23721;DHT22;42950;52.134;5.578;2023-08-21T07:58:15;21.80;99.90
23721;DHT22;42950;52.134;5.578;2023-08-21T08:00:40;21.80;99.90
23721;DHT22;42950;52.134;5.578;2023-08-21T08:03:08;21.90;99.90
23721;DHT22;42950;52.134;5.578;2023-08-21T08:05:34;22.10;99.90
23721;DHT22;42950;52.134;5.578;2023-08-21T08:07:59;22.20;99.90
23721;DHT22;42950;52.134;5.578;2023-08-21T08:10:25;22.40;99.90
23721;DHT22;42950;52.134;5.578;2023-08-21T08:12:51;22.50;99.90
23721;DHT22;42950;52.134;5.578;2023-08-21T08:15:17;22.70;99.90
23721;DHT22;42950;52.134;5.578;2023-08-21T08:17:43;22.70;99.90
23721;DHT22;42950;52.134;5.578;2023-08-21T08:20:09;22.80;99.90
23721;DHT22;42950;52.134;5.578;2023-08-21T08:22:35;22.90;99.90
23721;DHT22;42950;52.134;5.578;2023-08-21T08:25:00;22.90;99.90
23721;DHT22;42950;52.134;5.578;2023-08-21T08:27:26;22.90;99.90
23721;DHT22;42950;52.134;5.578;2023-08-21T08:29:52;22.80;99.90
23721;DHT22;42950;52.134;5.578;2023-08-21T08:32:17;22.90;99.90
23721;DHT22;42950;52.134;5.578;2023-08-21T08:34:43;23.10;99.90
23721;DHT22;42950;52.134;5.578;2023-08-21T08:37:11;23.30;99.90
23721;DHT22;42950;52.134;5.578;2023-08-21T08:39:37;23.40;99.90
23721;DHT22;42950;52.134;5.578;2023-08-21T08:42:05;23.60;99.90
23721;DHT22;42950;52.134;5.578;2023-08-21T08:44:34;23.50;99.90
23721;DHT22;42950;52.134;5.578;2023-08-21T08:47:01;23.70;99.90
23721;DHT22;42950;52.134;5.578;2023-08-21T08:49:27;23.70;99.90
23721;DHT22;42950;52.134;5.578;2023-08-21T08:51:54;23.70;99.90
23721;DHT22;42950;52.134;5.578;2023-08-21T08:54:21;23.60;99.90
23721;DHT22;42950;52.134;5.578;2023-08-21T08:56:47;23.50;99.90
23721;DHT22;42950;52.134;5.578;2023-08-21T08:59:13;23.30;99.90
23721;DHT22;42950;52.134;5.578;2023-08-21T09:01:40;23.40;99.90
23721;DHT22;42950;52.134;5.578;2023-08-21T09:04:06;23.50;99.90
23721;DHT22;42950;52.134;5.578;2023-08-21T09:06:32;23.40;99.90
23721;DHT22;42950;52.134;5.578;2023-08-21T09:08:58;23.60;99.90
23721;DHT22;42950;52.134;5.578;2023-08-21T09:11:24;23.80;99.90
23721;DHT22;42950;52.134;5.578;2023-08-21T09:13:50;23.80;99.90
23721;DHT22;42950;52.134;5.578;2023-08-21T09:16:18;23.80;99.90
23721;DHT22;42950;52.134;5.578;2023-08-21T09:18:47;24.00;99.90
23721;DHT22;42950;52.134;5.578;2023-08-21T09:21:18;24.00;99.90
23721;DHT22;42950;52.134;5.578;2023-08-21T09:23:44;24.20;99.90
23721;DHT22;42950;52.134;5.578;2023-08-21T09:26:18;24.30;99.90
23721;DHT22;42950;52.134;5.578;2023-08-21T09:28:44;24.20;99.90
23721;DHT22;42950;52.134;5.578;2023-08-21T09:31:10;24.50;99.90
23721;DHT22;42950;52.134;5.578;2023-08-21T09:33:36;24.70;99.90
23721;DHT22;42950;52.134;5.578;2023-08-21T09:36:03;24.90;99.90
23721;DHT22;42950;52.134;5.578;2023-08-21T09:38:30;24.90;99.90
23721;DHT22;42950;52.134;5.578;2023-08-21T09:40:56;25.00;99.90
23721;DHT22;42950;52.134;5.578;2023-08-21T09:43:23;25.20;99.90
23721;DHT22;42950;52.134;5.578;2023-08-21T09:45:50;25.30;99.90
23721;DHT22;42950;52.134;5.578;2023-08-21T09:48:20;25.20;99.90
23721;DHT22;42950;52.134;5.578;2023-08-21T09:50:46;25.10;99.90
23721;DHT22;42950;52.134;5.578;2023-08-21T09:53:12;25.10;99.90
23721;DHT22;42950;52.134;5.578;2023-08-21T09:55:39;25.30;99.90
23721;DHT22;42950;52.134;5.578;2023-08-21T09:58:05;25.50;99.90
23721;DHT22;42950;52.134;5.578;2023-08-21T10:00:33;25.40;99.90
23721;DHT22;42950;52.134;5.578;2023-08-21T10:03:04;25.60;99.90
23721;DHT22;42950;52.134;5.578;2023-08-21T10:05:31;25.90;99.90
23721;DHT22;42950;52.134;5.578;2023-08-21T10:08:03;26.00;99.90
23721;DHT22;42950;52.134;5.578;2023-08-21T10:10:38;25.90;99.90
23721;DHT22;42950;52.134;5.578;2023-08-21T10:13:05;25.80;99.90
23721;DHT22;42950;52.134;5.578;2023-08-21T10:15:34;26.00;99.90
23721;DHT22;42950;52.134;5.578;2023-08-21T10:18:37;26.00;99.90
23721;DHT22;42950;52.134;5.578;2023-08-21T10:21:14;26.30;99.90
23721;DHT22;42950;52.134;5.578;2023-08-21T10:23:40;26.60;99.90
23721;DHT22;42950;52.134;5.578;2023-08-21T10:26:09;26.50;99.90
23721;DHT22;42950;52.134;5.578;2023-08-21T10:29:01;26.40;99.90
23721;DHT22;42950;52.134;5.578;2023-08-21T10:31:35;26.50;99.90
23721;DHT22;42950;52.134;5.578;2023-08-21T10:34:06;26.70;99.90
23721;DHT22;42950;52.134;5.578;2023-08-21T10:36:39;26.70;99.90
23721;DHT22;42950;52.134;5.578;2023-08-21T10:41:38;26.80;99.90
23721;DHT22;42950;52.134;5.578;2023-08-21T10:44:05;26.80;99.90
23721;DHT22;42950;52.134;5.578;2023-08-21T10:46:50;26.80;99.90
23721;DHT22;42950;52.134;5.578;2023-08-21T10:49:15;26.80;99.90
23721;DHT22;42950;52.134;5.578;2023-08-21T10:51:42;26.70;99.90
23721;DHT22;42950;52.134;5.578;2023-08-21T10:54:13;27.00;99.90
23721;DHT22;42950;52.134;5.578;2023-08-21T10:56:39;27.20;99.90
23721;DHT22;42950;52.134;5.578;2023-08-21T10:59:04;27.30;99.90
23721;DHT22;42950;52.134;5.578;2023-08-21T11:01:45;27.60;99.90
23721;DHT22;42950;52.134;5.578;2023-08-21T11:04:12;27.80;99.90
23721;DHT22;42950;52.134;5.578;2023-08-21T11:06:38;27.50;99.90
23721;DHT22;42950;52.134;5.578;2023-08-21T11:09:04;27.40;99.90
23721;DHT22;42950;52.134;5.578;2023-08-21T11:11:30;27.50;99.90
23721;DHT22;42950;52.134;5.578;2023-08-21T11:13:55;27.70;99.90
23721;DHT22;42950;52.134;5.578;2023-08-21T11:16:21;27.70;99.90
23721;DHT22;42950;52.134;5.578;2023-08-21T11:18:47;27.60;99.90
23721;DHT22;42950;52.134;5.578;2023-08-21T11:21:12;27.90;99.90
23721;DHT22;42950;52.134;5.578;2023-08-21T11:23:39;28.10;99.90
23721;DHT22;42950;52.134;5.578;2023-08-21T11:26:06;28.20;99.90
23721;DHT22;42950;52.134;5.578;2023-08-21T11:28:33;28.20;99.90
23721;DHT22;42950;52.134;5.578;2023-08-21T11:30:59;28.50;99.90
23721;DHT22;42950;52.134;5.578;2023-08-21T11:33:26;28.80;99.90
23721;DHT22;42950;52.134;5.578;2023-08-21T11:35:52;28.70;99.90
23721;DHT22;42950;52.134;5.578;2023-08-21T11:38:23;28.60;99.90
23721;DHT22;42950;52.134;5.578;2023-08-21T11:40:58;28.30;99.90
23721;DHT22;42950;52.134;5.578;2023-08-21T11:43:41;28.20;99.90
23721;DHT22;42950;52.134;5.578;2023-08-21T11:46:08;28.20;99.90
23721;DHT22;42950;52.134;5.578;2023-08-21T11:48:39;28.20;99.90
23721;DHT22;42950;52.134;5.578;2023-08-21T11:51:06;28.40;99.90
23721;DHT22;42950;52.134;5.578;2023-08-21T11:53:36;28.50;99.90
23721;DHT22;42950;52.134;5.578;2023-08-21T11:56:03;28.50;99.90
23721;DHT22;42950;52.134;5.578;2023-08-21T11:58:38;28.20;99.90
23721;DHT22;42950;52.134;5.578;2023-08-21T12:01:04;28.00;99.90
23721;DHT22;42950;52.134;5.578;2023-08-21T12:03:30;27.90;99.90
23721;DHT22;42950;52.134;5.578;2023-08-21T12:05:56;28.10;99.90
23721;DHT22;42950;52.134;5.578;2023-08-21T12:08:22;28.30;99.90
23721;DHT22;42950;52.134;5.578;2023-08-21T12:10:51;28.50;99.90
23721;DHT22;42950;52.134;5.578;2023-08-21T12:13:19;28.50;99.90
23721;DHT22;42950;52.134;5.578;2023-08-21T12:15:45;28.30;99.90
23721;DHT22;42950;52.134;5.578;2023-08-21T12:18:11;27.80;99.90
23721;DHT22;42950;52.134;5.578;2023-08-21T12:20:36;27.70;99.90
23721;DHT22;42950;52.134;5.578;2023-08-21T12:23:03;27.70;99.90
23721;DHT22;42950;52.134;5.578;2023-08-21T12:25:28;27.80;99.90
23721;DHT22;42950;52.134;5.578;2023-08-21T12:27:55;28.00;99.90
23721;DHT22;42950;52.134;5.578;2023-08-21T12:30:21;28.50;99.90
23721;DHT22;42950;52.134;5.578;2023-08-21T12:32:46;28.60;99.90
23721;DHT22;42950;52.134;5.578;2023-08-21T12:35:12;28.60;99.90
23721;DHT22;42950;52.134;5.578;2023-08-21T12:37:37;28.70;99.90
23721;DHT22;42950;52.134;5.578;2023-08-21T12:40:03;28.70;99.90
23721;DHT22;42950;52.134;5.578;2023-08-21T12:42:29;28.90;99.90
23721;DHT22;42950;52.134;5.578;2023-08-21T12:44:55;28.90;99.90
23721;DHT22;42950;52.134;5.578;2023-08-21T12:47:20;28.80;99.90
23721;DHT22;42950;52.134;5.578;2023-08-21T12:49:46;28.60;99.90
23721;DHT22;42950;52.134;5.578;2023-08-21T12:52:12;28.70;99.90
23721;DHT22;42950;52.134;5.578;2023-08-21T12:54:39;29.00;99.90
23721;DHT22;42950;52.134;5.578;2023-08-21T12:57:04;29.10;99.90
23721;DHT22;42950;52.134;5.578;2023-08-21T12:59:31;29.00;99.90
23721;DHT22;42950;52.134;5.578;2023-08-21T13:01:58;28.90;99.90
23721;DHT22;42950;52.134;5.578;2023-08-21T13:04:25;28.90;99.90
23721;DHT22;42950;52.134;5.578;2023-08-21T13:06:51;28.80;99.90
23721;DHT22;42950;52.134;5.578;2023-08-21T13:09:16;28.70;99.90
23721;DHT22;42950;52.134;5.578;2023-08-21T13:11:42;29.00;99.90
23721;DHT22;42950;52.134;5.578;2023-08-21T13:14:07;29.10;99.90
23721;DHT22;42950;52.134;5.578;2023-08-21T13:16:33;29.00;99.90
23721;DHT22;42950;52.134;5.578;2023-08-21T13:18:58;29.20;99.90
23721;DHT22;42950;52.134;5.578;2023-08-21T13:21:24;29.20;99.90
23721;DHT22;42950;52.134;5.578;2023-08-21T13:23:49;29.20;99.90
23721;DHT22;42950;52.134;5.578;2023-08-21T13:26:15;29.30;99.90
23721;DHT22;42950;52.134;5.578;2023-08-21T13:28:40;29.20;99.90
23721;DHT22;42950;52.134;5.578;2023-08-21T13:31:06;29.10;99.90
23721;DHT22;42950;52.134;5.578;2023-08-21T13:33:46;28.70;99.90
23721;DHT22;42950;52.134;5.578;2023-08-21T13:36:11;28.50;99.90
23721;DHT22;42950;52.134;5.578;2023-08-21T13:38:37;28.60;99.90
23721;DHT22;42950;52.134;5.578;2023-08-21T13:41:02;28.60;99.90
23721;DHT22;42950;52.134;5.578;2023-08-21T13:43:29;28.80;99.90
23721;DHT22;42950;52.134;5.578;2023-08-21T13:45:54;29.00;99.90
23721;DHT22;42950;52.134;5.578;2023-08-21T13:48:20;29.40;99.90
23721;DHT22;42950;52.134;5.578;2023-08-21T13:50:45;29.30;99.90
23721;DHT22;42950;52.134;5.578;2023-08-21T13:53:11;29.00;99.90
23721;DHT22;42950;52.134;5.578;2023-08-21T13:55:36;29.10;99.90
23721;DHT22;42950;52.134;5.578;2023-08-21T13:58:02;29.00;99.90
23721;DHT22;42950;52.134;5.578;2023-08-21T14:00:28;28.80;99.90
23721;DHT22;42950;52.134;5.578;2023-08-21T14:02:53;28.80;99.90
23721;DHT22;42950;52.134;5.578;2023-08-21T14:05:19;29.00;99.90
23721;DHT22;42950;52.134;5.578;2023-08-21T14:07:44;29.20;99.90
23721;DHT22;42950;52.134;5.578;2023-08-21T14:10:10;29.10;99.90
23721;DHT22;42950;52.134;5.578;2023-08-21T14:12:37;29.40;99.90
23721;DHT22;42950;52.134;5.578;2023-08-21T14:15:03;29.40;99.90
23721;DHT22;42950;52.134;5.578;2023-08-21T14:17:28;29.50;99.90
23721;DHT22;42950;52.134;5.578;2023-08-21T14:19:54;29.50;99.90
23721;DHT22;42950;52.134;5.578;2023-08-21T14:22:20;29.60;99.90
23721;DHT22;42950;52.134;5.578;2023-08-21T14:24:45;29.80;99.90
23721;DHT22;42950;52.134;5.578;2023-08-21T14:27:11;29.50;99.90
23721;DHT22;42950;52.134;5.578;2023-08-21T14:29:37;29.30;99.90
23721;DHT22;42950;52.134;5.578;2023-08-21T14:32:02;29.30;99.90
23721;DHT22;42950;52.134;5.578;2023-08-21T14:34:28;29.00;99.90
23721;DHT22;42950;52.134;5.578;2023-08-21T14:36:54;28.80;99.90
23721;DHT22;42950;52.134;5.578;2023-08-21T14:39:22;28.40;99.90
23721;DHT22;42950;52.134;5.578;2023-08-21T14:41:54;28.30;99.90
23721;DHT22;42950;52.134;5.578;2023-08-21T14:44:20;28.40;99.90
23721;DHT22;42950;52.134;5.578;2023-08-21T14:46:45;28.50;99.90
23721;DHT22;42950;52.134;5.578;2023-08-21T14:49:11;28.10;99.90
23721;DHT22;42950;52.134;5.578;2023-08-21T14:51:38;28.40;99.90
23721;DHT22;42950;52.134;5.578;2023-08-21T14:54:04;29.00;99.90
23721;DHT22;42950;52.134;5.578;2023-08-21T14:56:30;29.20;99.90
23721;DHT22;42950;52.134;5.578;2023-08-21T14:58:56;29.40;99.90
23721;DHT22;42950;52.134;5.578;2023-08-21T15:01:22;29.50;99.90
23721;DHT22;42950;52.134;5.578;2023-08-21T15:03:47;29.60;99.90
23721;DHT22;42950;52.134;5.578;2023-08-21T15:06:13;29.70;99.90
23721;DHT22;42950;52.134;5.578;2023-08-21T15:08:41;29.40;99.90
23721;DHT22;42950;52.134;5.578;2023-08-21T15:11:08;29.50;99.90
23721;DHT22;42950;52.134;5.578;2023-08-21T15:13:35;29.70;99.90
23721;DHT22;42950;52.134;5.578;2023-08-21T15:16:00;29.70;99.90
23721;DHT22;42950;52.134;5.578;2023-08-21T15:18:26;29.70;99.90
23721;DHT22;42950;52.134;5.578;2023-08-21T15:20:51;29.80;99.90
23721;DHT22;42950;52.134;5.578;2023-08-21T15:23:17;29.70;99.90
23721;DHT22;42950;52.134;5.578;2023-08-21T15:25:42;29.70;99.90
23721;DHT22;42950;52.134;5.578;2023-08-21T15:28:08;30.00;99.90